Time;durP1;ratioP1;P1;durP2;ratioP2;P2;SDS_P1;SDS_P2;PMS_P1;PMS_P2;Temp;Humidity;BMP_temperature;BMP_pressure;BME280_temperature;BME280_humidity;BME280_pressure;Samples;Min_cycle;Max_cycle;Signal;HPM_P1;HPM_P2
2023/04/22 00:01:02;;;;;;;11.48;10.27;;;12.10;99.90;;;;;;6123975;23;20014;-84
2023/04/22 00:03:27;;;;;;;12.90;11.57;;;12.00;99.90;;;;;;6122996;23;20018;-84
2023/04/22 00:05:54;;;;;;;12.18;10.90;;;12.00;99.90;;;;;;6098938;23;20014;-83
2023/04/22 00:08:19;;;;;;;14.00;12.52;;;12.00;99.90;;;;;;6122991;23;20017;-84
2023/04/22 00:10:45;;;;;;;14.18;12.77;;;12.00;99.90;;;;;;6099153;23;20017;-84
2023/04/22 00:13:10;;;;;;;12.80;11.07;;;12.00;99.90;;;;;;6124760;23;20109;-83
2023/04/22 00:15:36;;;;;;;15.60;13.65;;;11.90;99.90;;;;;;6123179;23;20041;-84
2023/04/22 00:18:02;;;;;;;15.65;13.32;;;12.00;99.90;;;;;;6123573;23;20018;-84
2023/04/22 00:20:28;;;;;;;16.92;13.93;;;11.80;99.90;;;;;;6098827;23;20418;-84
2023/04/22 00:22:53;;;;;;;18.83;14.95;;;11.80;99.90;;;;;;6099436;23;20081;-84
2023/04/22 00:25:19;;;;;;;14.43;12.05;;;11.70;99.90;;;;;;6125417;23;20417;-84
2023/04/22 00:27:45;;;;;;;16.40;14.20;;;11.80;99.90;;;;;;6100645;23;20085;-84
2023/04/22 00:30:11;;;;;;;18.83;15.40;;;11.60;99.90;;;;;;6126494;23;20076;-84
2023/04/22 00:32:37;;;;;;;17.98;16.15;;;11.50;99.90;;;;;;6101157;23;20101;-84
2023/04/22 00:35:03;;;;;;;17.98;15.95;;;11.30;99.90;;;;;;6127555;23;20084;-84
2023/04/22 00:37:29;;;;;;;17.17;15.25;;;11.30;99.90;;;;;;6100285;23;20010;-84
2023/04/22 00:39:56;;;;;;;16.95;14.38;;;11.30;99.90;;;;;;6127167;23;20018;-83
2023/04/22 00:42:22;;;;;;;18.00;16.10;;;11.20;99.90;;;;;;6124668;23;20014;-84
2023/04/22 00:44:50;;;;;;;18.90;16.92;;;11.10;99.90;;;;;;6124903;23;20017;-84
2023/04/22 00:47:16;;;;;;;15.65;14.05;;;11.20;99.90;;;;;;6126424;23;20081;-83
2023/04/22 00:49:42;;;;;;;18.35;15.18;;;11.00;99.90;;;;;;6099775;23;20018;-83
2023/04/22 00:52:07;;;;;;;14.95;13.00;;;10.90;99.90;;;;;;6123908;23;20020;-84
2023/04/22 00:54:35;;;;;;;15.63;13.90;;;11.00;99.90;;;;;;6126232;23;20014;-84
2023/04/22 00:57:02;;;;;;;17.85;15.65;;;10.80;99.90;;;;;;6153198;23;20017;-84
2023/04/22 00:59:28;;;;;;;16.33;14.68;;;10.80;99.90;;;;;;6104910;23;20013;-84
2023/04/22 01:01:55;;;;;;;14.80;13.38;;;10.70;99.90;;;;;;6129361;23;20025;-84
2023/04/22 01:04:21;;;;;;;16.15;14.23;;;10.80;99.90;;;;;;6155958;23;20018;-84
2023/04/22 01:06:50;;;;;;;14.95;13.43;;;10.60;99.90;;;;;;6129018;23;20013;-83
2023/04/22 01:09:16;;;;;;;17.23;15.52;;;10.60;99.90;;;;;;6155320;23;20009;-84
2023/04/22 01:11:41;;;;;;;19.40;15.07;;;10.60;99.90;;;;;;6128734;23;20013;-84
2023/04/22 01:14:07;;;;;;;16.60;14.90;;;10.60;99.90;;;;;;6129101;23;20083;-84
2023/04/22 01:16:34;;;;;;;17.50;15.65;;;10.60;99.90;;;;;;6155871;23;20014;-85
2023/04/22 01:19:00;;;;;;;18.60;16.75;;;10.60;99.90;;;;;;6155227;23;20021;-84
2023/04/22 01:21:27;;;;;;;24.95;21.10;;;10.60;99.90;;;;;;6128978;23;20009;-84
2023/04/22 01:23:52;;;;;;;23.65;19.38;;;10.50;99.90;;;;;;6104508;23;20388;-83
2023/04/22 01:26:18;;;;;;;19.63;17.23;;;10.50;99.90;;;;;;6128446;23;20044;-84
2023/04/22 01:28:44;;;;;;;19.35;17.40;;;10.60;99.90;;;;;;6155590;23;20469;-84
2023/04/22 01:31:10;;;;;;;21.52;17.90;;;10.50;99.90;;;;;;6129066;23;20081;-83
2023/04/22 01:33:37;;;;;;;20.70;17.40;;;10.50;99.90;;;;;;6128919;23;20033;-84
2023/04/22 01:36:02;;;;;;;16.80;15.10;;;10.40;99.90;;;;;;6105305;23;20013;-84
2023/04/22 01:38:32;;;;;;;18.20;16.40;;;10.40;99.90;;;;;;6154918;23;20097;-84
2023/04/22 01:40:59;;;;;;;20.33;18.00;;;10.40;99.90;;;;;;6126993;23;20282;-84
2023/04/22 01:43:25;;;;;;;17.20;15.52;;;10.40;99.90;;;;;;6127568;23;20013;-84
2023/04/22 01:45:51;;;;;;;21.98;18.60;;;10.30;99.90;;;;;;6127328;23;20345;-84
2023/04/22 01:48:16;;;;;;;16.70;14.93;;;10.30;99.90;;;;;;6103066;23;20021;-85
2023/04/22 01:50:42;;;;;;;19.10;16.48;;;10.20;99.90;;;;;;6103382;23;20452;-85
2023/04/22 01:53:08;;;;;;;20.00;18.02;;;10.20;99.90;;;;;;6128906;23;20270;-84
2023/04/22 01:55:34;;;;;;;19.70;17.73;;;10.10;99.90;;;;;;6123864;23;20022;-83
2023/04/22 01:58:01;;;;;;;19.70;17.70;;;10.10;99.90;;;;;;6125135;23;20314;-84
2023/04/22 02:00:27;;;;;;;19.67;17.60;;;10.00;99.90;;;;;;6123182;23;20036;-84
2023/04/22 02:02:52;;;;;;;18.48;16.67;;;10.00;99.90;;;;;;6125467;23;20076;-84
2023/04/22 02:05:18;;;;;;;18.10;16.33;;;9.90;99.90;;;;;;6125447;23;20045;-84
2023/04/22 02:07:43;;;;;;;18.92;16.95;;;9.90;99.90;;;;;;6098984;23;20080;-84
2023/04/22 02:10:10;;;;;;;18.20;16.30;;;9.90;99.90;;;;;;6124818;23;20014;-84
2023/04/22 02:12:36;;;;;;;20.50;18.40;;;9.90;99.90;;;;;;6123630;23;20053;-83
2023/04/22 02:15:02;;;;;;;19.08;17.17;;;10.10;99.90;;;;;;6123627;23;20014;-85
2023/04/22 02:17:27;;;;;;;19.52;16.00;;;9.80;99.90;;;;;;6123753;23;20049;-84
2023/04/22 02:19:53;;;;;;;20.05;18.00;;;10.10;99.90;;;;;;6123276;23;20101;-84
2023/04/22 02:22:20;;;;;;;20.75;18.10;;;9.80;99.90;;;;;;6098980;23;20022;-83
2023/04/22 02:24:45;;;;;;;23.25;20.30;;;9.90;99.90;;;;;;6122945;23;20175;-84
2023/04/22 02:27:11;;;;;;;23.92;21.73;;;9.70;99.90;;;;;;6123632;23;20044;-84
2023/04/22 02:29:37;;;;;;;23.02;20.75;;;9.70;99.90;;;;;;6125542;23;20085;-83
2023/04/22 02:32:03;;;;;;;26.52;23.67;;;10.20;99.90;;;;;;6099168;23;20021;-84
2023/04/22 02:34:28;;;;;;;26.02;23.25;;;9.60;99.90;;;;;;6123615;23;20049;-84
2023/04/22 02:36:54;;;;;;;27.50;23.10;;;9.70;99.90;;;;;;6125124;23;20024;-84
2023/04/22 02:39:20;;;;;;;24.00;21.50;;;9.70;99.90;;;;;;6122235;23;20085;-83
2023/04/22 02:41:45;;;;;;;22.02;19.75;;;9.80;99.90;;;;;;6124452;23;20072;-83
2023/04/22 02:44:11;;;;;;;21.13;19.08;;;9.60;99.90;;;;;;6122699;23;20014;-84
2023/04/22 02:46:37;;;;;;;21.30;19.17;;;9.60;99.90;;;;;;6122964;23;20100;-84
2023/04/22 02:49:02;;;;;;;21.67;19.65;;;9.80;99.90;;;;;;6122832;23;20068;-84
2023/04/22 02:51:28;;;;;;;25.27;21.52;;;9.60;99.90;;;;;;6123247;23;20017;-83
2023/04/22 02:53:53;;;;;;;26.42;23.77;;;10.20;99.90;;;;;;6124425;23;20014;-84
2023/04/22 02:56:20;;;;;;;30.50;25.13;;;9.50;99.90;;;;;;6122903;23;20096;-84
2023/04/22 02:58:46;;;;;;;22.25;19.95;;;9.40;99.90;;;;;;6123821;23;20022;-83
2023/04/22 03:01:12;;;;;;;25.20;22.58;;;9.30;99.90;;;;;;6122974;23;20294;-84
2023/04/22 03:03:38;;;;;;;28.52;24.95;;;9.80;99.90;;;;;;6123122;23;20014;-84
2023/04/22 03:06:03;;;;;;;21.67;19.48;;;9.90;99.90;;;;;;6122885;23;20021;-83
2023/04/22 03:08:29;;;;;;;23.10;20.70;;;9.20;99.90;;;;;;6122667;23;20010;-84
2023/04/22 03:10:55;;;;;;;20.15;18.15;;;9.50;99.90;;;;;;6123451;23;20428;-84
2023/04/22 03:13:20;;;;;;;22.67;20.40;;;8.90;99.90;;;;;;6123519;23;20017;-84
2023/04/22 03:15:46;;;;;;;21.95;19.77;;;9.20;99.90;;;;;;6098425;23;20021;-83
2023/04/22 03:18:11;;;;;;;21.98;19.48;;;8.80;99.90;;;;;;6123241;23;20033;-84
2023/04/22 03:20:37;;;;;;;22.63;20.23;;;9.00;99.90;;;;;;6123405;23;20109;-84
2023/04/22 03:23:03;;;;;;;25.83;22.23;;;8.90;99.90;;;;;;6097401;23;20402;-84
2023/04/22 03:25:29;;;;;;;24.95;21.35;;;9.60;99.90;;;;;;6098351;23;20320;-83
2023/04/22 03:27:54;;;;;;;19.85;17.95;;;8.90;99.90;;;;;;6098375;23;20013;-84
2023/04/22 03:30:20;;;;;;;25.35;22.65;;;9.10;99.90;;;;;;6122661;23;20489;-84
2023/04/22 03:32:46;;;;;;;26.73;24.05;;;8.80;99.90;;;;;;6122770;23;20013;-84
2023/04/22 03:35:12;;;;;;;22.65;20.23;;;8.70;99.90;;;;;;6096988;23;20018;-84
2023/04/22 03:37:37;;;;;;;22.13;19.92;;;8.70;99.90;;;;;;6097596;23;20018;-84
2023/04/22 03:40:04;;;;;;;25.60;22.83;;;8.80;99.90;;;;;;6124176;23;20192;-84
2023/04/22 03:42:30;;;;;;;28.13;24.83;;;8.60;99.90;;;;;;6098521;23;20018;-84
2023/04/22 03:44:56;;;;;;;23.00;20.60;;;9.10;99.90;;;;;;6098448;23;20029;-84
2023/04/22 03:47:22;;;;;;;31.75;26.60;;;8.60;99.90;;;;;;6124767;23;20014;-84
2023/04/22 03:49:47;;;;;;;27.23;24.33;;;8.60;99.90;;;;;;6124814;23;20006;-85
2023/04/22 03:52:13;;;;;;;24.73;22.13;;;8.90;99.90;;;;;;6097592;23;20472;-84
2023/04/22 03:54:39;;;;;;;22.00;19.65;;;8.50;99.90;;;;;;6125198;23;20060;-84
2023/04/22 03:57:05;;;;;;;20.10;18.05;;;8.80;99.90;;;;;;6098748;23;20096;-83
2023/04/22 03:59:31;;;;;;;21.30;19.13;;;8.50;99.90;;;;;;6124649;23;20049;-84
2023/04/22 04:01:57;;;;;;;20.25;17.88;;;9.10;99.90;;;;;;6124038;23;20397;-83
2023/04/22 04:04:22;;;;;;;26.73;23.92;;;8.40;99.90;;;;;;6126370;23;20006;-83
2023/04/22 04:06:48;;;;;;;26.42;23.73;;;8.70;99.90;;;;;;6099290;23;20012;-84
2023/04/22 04:09:14;;;;;;;28.23;25.20;;;8.40;99.90;;;;;;6124148;23;20070;-84
2023/04/22 04:11:39;;;;;;;34.35;30.02;;;8.60;99.90;;;;;;6100412;23;20311;-83
2023/04/22 04:14:05;;;;;;;36.20;31.70;;;8.60;99.90;;;;;;6124331;23;20017;-83
2023/04/22 04:16:31;;;;;;;26.90;24.20;;;9.20;99.90;;;;;;6125636;23;20013;-83
2023/04/22 04:18:56;;;;;;;34.22;30.42;;;8.40;99.90;;;;;;6099607;23;20021;-83
2023/04/22 04:21:22;;;;;;;34.03;30.42;;;8.40;99.90;;;;;;6123305;23;20018;-83
2023/04/22 04:23:48;;;;;;;32.22;28.75;;;8.40;99.90;;;;;;6125519;23;20009;-83
2023/04/22 04:26:13;;;;;;;35.17;31.45;;;8.40;99.90;;;;;;6123862;23;20493;-83
2023/04/22 04:28:40;;;;;;;33.22;29.77;;;8.70;99.90;;;;;;6125525;23;20298;-82
2023/04/22 04:31:06;;;;;;;32.92;29.38;;;8.50;99.90;;;;;;6099284;23;20014;-82
2023/04/22 04:33:32;;;;;;;34.85;31.30;;;8.70;99.90;;;;;;6099503;23;20018;-83
2023/04/22 04:35:58;;;;;;;30.13;27.00;;;8.50;99.90;;;;;;6124815;23;20024;-82
2023/04/22 04:38:24;;;;;;;36.83;32.42;;;8.50;99.90;;;;;;6123660;23;20029;-82
2023/04/22 04:40:51;;;;;;;35.35;31.60;;;8.50;99.90;;;;;;6126489;23;20056;-84
2023/04/22 04:43:17;;;;;;;34.75;31.20;;;8.50;99.90;;;;;;6124636;23;20014;-84
2023/04/22 04:45:45;;;;;;;34.53;30.73;;;8.50;99.90;;;;;;6124387;23;20093;-83
2023/04/22 04:48:15;;;;;;;33.85;30.40;;;8.50;99.90;;;;;;6126206;23;20083;-84
2023/04/22 04:50:44;;;;;;;36.78;32.78;;;8.40;99.90;;;;;;6125341;23;20010;-84
2023/04/22 04:53:10;;;;;;;38.25;33.63;;;8.50;99.90;;;;;;6126299;23;20353;-83
2023/04/22 04:55:37;;;;;;;30.95;27.77;;;8.50;99.90;;;;;;6099015;23;20080;-84
2023/04/22 04:58:03;;;;;;;36.85;32.80;;;8.50;99.90;;;;;;6124600;23;20393;-83
2023/04/22 05:00:29;;;;;;;32.55;29.40;;;8.60;99.90;;;;;;6099494;23;20082;-83
2023/04/22 05:02:54;;;;;;;35.83;32.05;;;8.60;99.90;;;;;;6125282;23;20021;-84
2023/04/22 05:05:20;;;;;;;36.63;32.92;;;8.60;99.90;;;;;;6122892;23;20010;-84
2023/04/22 05:07:46;;;;;;;32.40;29.02;;;8.70;99.90;;;;;;6125023;23;20028;-82
2023/04/22 05:10:11;;;;;;;37.17;33.17;;;8.90;99.90;;;;;;6122504;23;20314;-82
2023/04/22 05:12:37;;;;;;;31.40;28.30;;;8.90;99.90;;;;;;6098925;23;20065;-82
2023/04/22 05:15:03;;;;;;;33.45;29.85;;;9.10;99.90;;;;;;6123019;23;20021;-84
2023/04/22 05:17:29;;;;;;;30.90;27.67;;;9.00;99.90;;;;;;6098596;23;20104;-81
2023/04/22 05:19:55;;;;;;;32.10;28.80;;;9.10;99.90;;;;;;6122496;23;20068;-83
2023/04/22 05:22:21;;;;;;;29.67;26.67;;;9.40;99.90;;;;;;6123150;23;20018;-83
2023/04/22 05:24:46;;;;;;;31.00;27.92;;;9.20;99.90;;;;;;6125373;23;20406;-83
2023/04/22 05:27:12;;;;;;;33.95;30.35;;;9.30;99.90;;;;;;6123576;23;20446;-83
2023/04/22 05:29:38;;;;;;;30.42;27.42;;;9.40;99.90;;;;;;6099102;23;20098;-83
2023/04/22 05:32:05;;;;;;;30.98;27.85;;;9.80;99.90;;;;;;6122878;23;20069;-83
2023/04/22 05:34:31;;;;;;;30.80;27.88;;;9.50;99.90;;;;;;6125155;23;20018;-82
2023/04/22 05:36:56;;;;;;;28.38;25.40;;;9.60;99.90;;;;;;6099148;23;20411;-82
2023/04/22 05:39:22;;;;;;;27.25;24.40;;;9.60;99.90;;;;;;6122902;23;20021;-83
2023/04/22 05:41:48;;;;;;;25.33;22.88;;;10.10;99.90;;;;;;6123407;23;20014;-83
2023/04/22 05:44:13;;;;;;;24.77;22.48;;;9.80;99.90;;;;;;6123266;23;20014;-82
2023/04/22 05:46:39;;;;;;;24.90;22.52;;;9.90;99.90;;;;;;6124533;23;20014;-81
2023/04/22 05:49:05;;;;;;;25.58;23.17;;;10.30;99.90;;;;;;6124888;23;20057;-80
2023/04/22 05:51:31;;;;;;;24.65;22.10;;;10.10;99.90;;;;;;6124796;23;20345;-81
2023/04/22 05:53:57;;;;;;;25.60;22.35;;;10.10;99.90;;;;;;6123858;23;20372;-83
2023/04/22 05:56:22;;;;;;;23.75;21.33;;;10.20;99.90;;;;;;6143436;23;20080;-83
2023/04/22 05:58:48;;;;;;;23.83;21.55;;;10.30;99.90;;;;;;6103378;23;20080;-82
2023/04/22 06:01:14;;;;;;;25.52;22.85;;;10.30;99.90;;;;;;6153581;23;20089;-82
2023/04/22 06:03:39;;;;;;;25.42;22.92;;;10.30;99.90;;;;;;6154124;23;20444;-83
2023/04/22 06:06:05;;;;;;;24.70;22.10;;;10.10;99.90;;;;;;6153690;23;20410;-83
2023/04/22 06:08:31;;;;;;;24.90;22.08;;;10.40;99.90;;;;;;6127825;23;20009;-82
2023/04/22 06:10:57;;;;;;;23.02;20.73;;;10.50;99.90;;;;;;6154006;23;20456;-83
2023/04/22 06:13:23;;;;;;;25.90;23.30;;;10.50;99.90;;;;;;6103170;23;20063;-83
2023/04/22 06:15:48;;;;;;;25.33;21.95;;;10.60;99.90;;;;;;6126586;23;20021;-83
2023/04/22 06:18:14;;;;;;;23.13;20.92;;;10.60;99.90;;;;;;6127296;23;20014;-83
2023/04/22 06:20:40;;;;;;;23.85;21.50;;;10.70;99.90;;;;;;6127484;23;20089;-83
2023/04/22 06:23:05;;;;;;;20.42;18.48;;;10.70;99.90;;;;;;6102516;23;20036;-83
2023/04/22 06:25:31;;;;;;;21.75;19.55;;;10.80;99.90;;;;;;6127129;23;20009;-83
2023/04/22 06:28:00;;;;;;;22.90;20.77;;;10.90;99.90;;;;;;6127471;23;20429;-83
2023/04/22 06:30:26;;;;;;;22.15;20.05;;;11.10;99.90;;;;;;6126442;23;20341;-84
2023/04/22 06:32:53;;;;;;;23.52;20.27;;;11.20;99.90;;;;;;6127267;23;20024;-83
2023/04/22 06:35:20;;;;;;;22.15;19.42;;;11.50;99.90;;;;;;6127073;23;20056;-83
2023/04/22 06:37:49;;;;;;;22.50;19.60;;;11.80;99.90;;;;;;6127140;23;20014;-84
2023/04/22 06:40:15;;;;;;;23.45;19.05;;;11.40;99.90;;;;;;6127103;23;20092;-83
2023/04/22 06:42:40;;;;;;;20.15;18.15;;;11.60;99.90;;;;;;6102566;23;20045;-84
2023/04/22 06:45:11;;;;;;;17.88;16.13;;;11.60;99.90;;;;;;6126829;23;20065;-83
2023/04/22 06:47:38;;;;;;;20.15;18.15;;;11.60;99.90;;;;;;6153530;23;20009;-84
2023/04/22 06:50:06;;;;;;;17.27;15.65;;;11.60;99.90;;;;;;6126767;23;20029;-84
2023/04/22 06:52:31;;;;;;;19.23;17.33;;;11.70;99.90;;;;;;6126915;23;20356;-84
2023/04/22 06:54:57;;;;;;;18.38;16.58;;;11.70;99.90;;;;;;6126962;23;20033;-83
2023/04/22 06:57:23;;;;;;;17.98;16.00;;;11.80;99.90;;;;;;6102349;23;20033;-84
2023/04/22 06:59:48;;;;;;;17.95;16.05;;;11.80;99.90;;;;;;6101936;23;20100;-84
2023/04/22 07:02:14;;;;;;;18.60;16.35;;;11.90;99.90;;;;;;6102191;23;20021;-84
2023/04/22 07:04:40;;;;;;;17.77;15.90;;;11.90;99.90;;;;;;6127143;23;20017;-84
2023/04/22 07:07:05;;;;;;;18.20;16.42;;;12.00;99.90;;;;;;6102513;23;20059;-84
2023/04/22 07:09:31;;;;;;;17.23;15.38;;;12.00;99.90;;;;;;6153305;23;20080;-83
2023/04/22 07:11:57;;;;;;;18.75;16.83;;;12.10;99.90;;;;;;6153205;23;20470;-83
2023/04/22 07:14:25;;;;;;;15.82;14.30;;;12.10;99.90;;;;;;6126221;23;20040;-84
2023/04/22 07:16:51;;;;;;;17.27;14.85;;;12.30;99.90;;;;;;6102174;23;20092;-84
2023/04/22 07:19:16;;;;;;;18.13;16.30;;;12.30;99.90;;;;;;6153187;23;20052;-84
2023/04/22 07:21:42;;;;;;;15.77;14.25;;;12.40;99.90;;;;;;6126462;23;20048;-84
2023/04/22 07:24:10;;;;;;;20.27;15.75;;;12.40;99.90;;;;;;6153221;23;20100;-84
2023/04/22 07:26:37;;;;;;;18.27;15.68;;;12.50;99.90;;;;;;6126820;23;20024;-84
2023/04/22 07:29:03;;;;;;;18.05;15.95;;;12.60;99.90;;;;;;6152457;23;20049;-84
2023/04/22 07:31:28;;;;;;;20.10;18.17;;;12.60;99.90;;;;;;6101680;23;20063;-84
2023/04/22 07:33:54;;;;;;;20.38;17.25;;;12.80;99.90;;;;;;6126769;23;20013;-84
2023/04/22 07:36:20;;;;;;;21.30;19.13;;;12.80;99.90;;;;;;6152575;23;20322;-84
2023/04/22 07:38:45;;;;;;;15.98;14.27;;;12.90;99.90;;;;;;6126868;23;20016;-84
2023/04/22 07:41:11;;;;;;;16.20;14.35;;;12.90;99.90;;;;;;6126404;23;20021;-84
2023/04/22 07:43:36;;;;;;;14.63;13.15;;;13.10;99.90;;;;;;6125983;23;20314;-84
2023/04/22 07:46:02;;;;;;;15.23;13.65;;;13.10;99.90;;;;;;6126466;23;20052;-84
2023/04/22 07:48:28;;;;;;;15.20;13.73;;;13.20;99.90;;;;;;6102146;23;20132;-84
2023/04/22 07:50:53;;;;;;;15.35;13.75;;;13.40;99.90;;;;;;6126207;23;20009;-84
2023/04/22 07:53:19;;;;;;;15.45;13.73;;;13.50;99.90;;;;;;6126504;23;20018;-84
2023/04/22 07:55:45;;;;;;;16.48;14.85;;;13.60;99.90;;;;;;6096717;23;20453;-84
2023/04/22 07:58:11;;;;;;;12.80;11.60;;;13.80;99.90;;;;;;6121278;23;20018;-84
2023/04/22 08:00:36;;;;;;;17.00;13.68;;;13.80;99.90;;;;;;6123435;23;20020;-84
2023/04/22 08:03:03;;;;;;;15.07;12.80;;;13.90;99.90;;;;;;6121251;23;20096;-84
2023/04/22 08:05:29;;;;;;;14.45;12.95;;;14.00;99.90;;;;;;6121357;23;20010;-84
2023/04/22 08:07:54;;;;;;;13.57;12.23;;;14.10;99.90;;;;;;6123402;23;20101;-84
2023/04/22 08:10:20;;;;;;;14.48;12.57;;;14.20;99.90;;;;;;6096915;23;20021;-84
2023/04/22 08:12:46;;;;;;;14.23;12.23;;;14.30;99.90;;;;;;6096676;23;20017;-83
2023/04/22 08:15:11;;;;;;;14.07;12.65;;;14.50;99.90;;;;;;6121316;23;20302;-84
2023/04/22 08:17:37;;;;;;;13.88;12.38;;;14.60;99.90;;;;;;6123292;23;20382;-85
2023/04/22 08:20:04;;;;;;;14.70;12.85;;;14.80;99.90;;;;;;6123227;23;20433;-84
2023/04/22 08:22:30;;;;;;;13.23;11.93;;;15.00;99.90;;;;;;6122679;23;20445;-84
2023/04/22 08:24:56;;;;;;;13.73;12.27;;;15.20;99.90;;;;;;6096837;23;20010;-84
2023/04/22 08:27:22;;;;;;;12.65;11.35;;;15.40;99.90;;;;;;6096367;23;20097;-84
2023/04/22 08:29:48;;;;;;;13.20;12.00;;;15.70;99.90;;;;;;6121111;23;20010;-85
2023/04/22 08:32:13;;;;;;;12.63;11.43;;;16.10;99.90;;;;;;6096842;23;20377;-84
2023/04/22 08:34:39;;;;;;;13.27;11.25;;;16.30;99.90;;;;;;6121472;23;20022;-84
2023/04/22 08:37:05;;;;;;;14.82;10.07;;;16.50;99.90;;;;;;6121103;23;20437;-85
2023/04/22 08:39:30;;;;;;;13.40;10.20;;;16.90;99.90;;;;;;6121671;23;20017;-85
2023/04/22 08:41:57;;;;;;;11.85;10.68;;;17.10;99.90;;;;;;6120523;23;20014;-85
2023/04/22 08:44:23;;;;;;;12.40;10.70;;;17.40;99.90;;;;;;6124418;23;20085;-85
2023/04/22 08:46:50;;;;;;;12.80;10.57;;;17.60;99.90;;;;;;6098664;23;20065;-85
2023/04/22 08:49:17;;;;;;;12.35;10.48;;;17.70;99.90;;;;;;6098850;23;20005;-84
2023/04/22 08:51:43;;;;;;;11.07;9.27;;;18.00;99.90;;;;;;6124929;23;20017;-84
2023/04/22 08:54:10;;;;;;;11.05;9.23;;;18.50;99.90;;;;;;6123301;23;20111;-84
2023/04/22 08:56:39;;;;;;;10.80;9.80;;;18.70;99.90;;;;;;6145644;23;20018;-83
2023/04/22 08:59:04;;;;;;;8.68;7.78;;;18.70;99.90;;;;;;6127670;23;20444;-85
2023/04/22 09:01:31;;;;;;;10.90;9.02;;;18.60;99.90;;;;;;6127991;23;20028;-84
2023/04/22 09:04:01;;;;;;;10.00;8.65;;;18.40;99.90;;;;;;6103587;23;20072;-85
2023/04/22 09:06:27;;;;;;;10.05;8.82;;;18.50;99.90;;;;;;6127460;23;20413;-84
2023/04/22 09:08:53;;;;;;;11.43;8.10;;;18.50;99.90;;;;;;6103195;23;20073;-83
2023/04/22 09:11:19;;;;;;;16.13;9.07;;;18.50;99.90;;;;;;6102572;23;20048;-84
2023/04/22 09:13:46;;;;;;;11.15;8.48;;;18.50;99.90;;;;;;6127576;23;20024;-84
2023/04/22 09:16:11;;;;;;;9.82;8.40;;;18.50;99.90;;;;;;6127284;23;20017;-85
2023/04/22 09:18:44;;;;;;;13.02;9.45;;;18.50;99.90;;;;;;6103213;23;20014;-84
2023/04/22 09:21:10;;;;;;;11.07;8.48;;;18.40;99.90;;;;;;6102981;23;20009;-84
2023/04/22 09:23:45;;;;;;;13.75;8.63;;;18.30;99.90;;;;;;6127365;23;20092;-84
2023/04/22 09:26:11;;;;;;;10.40;7.30;;;18.40;99.90;;;;;;6102375;23;20374;-84
2023/04/22 09:28:37;;;;;;;10.75;8.27;;;18.80;99.90;;;;;;6127410;23;20013;-84
2023/04/22 09:31:03;;;;;;;10.75;7.50;;;19.20;99.90;;;;;;6127433;23;20013;-84
2023/04/22 09:33:30;;;;;;;10.15;7.18;;;19.70;99.90;;;;;;6127548;23;20040;-84
2023/04/22 09:35:56;;;;;;;7.65;6.70;;;20.20;99.90;;;;;;6103294;23;20018;-84
2023/04/22 09:38:21;;;;;;;8.20;7.35;;;20.60;99.90;;;;;;6127809;23;20032;-84
2023/04/22 09:40:47;;;;;;;10.77;6.97;;;20.70;99.90;;;;;;6153244;23;20302;-85
2023/04/22 09:43:18;;;;;;;10.38;7.45;;;20.70;99.90;;;;;;6127887;23;20089;-84
2023/04/22 09:45:44;;;;;;;10.98;7.82;;;20.40;99.90;;;;;;6127485;23;20014;-85
2023/04/22 09:48:14;;;;;;;12.23;7.20;;;20.10;99.90;;;;;;6102749;23;20375;-84
2023/04/22 09:50:48;;;;;;;9.57;6.95;;;19.90;99.90;;;;;;6127748;23;20013;-84
2023/04/22 09:53:16;;;;;;;7.53;6.13;;;19.70;99.90;;;;;;6102485;23;20013;-84
2023/04/22 09:55:44;;;;;;;10.38;7.20;;;19.60;99.90;;;;;;6097488;23;20026;-84
2023/04/22 09:58:12;;;;;;;9.73;6.50;;;19.50;99.90;;;;;;6124375;23;20025;-84
2023/04/22 10:00:47;;;;;;;7.80;6.30;;;19.60;99.90;;;;;;6124244;23;20014;-84
2023/04/22 10:03:13;;;;;;;8.40;7.50;;;19.80;99.90;;;;;;6122671;23;20014;-84
2023/04/22 10:05:40;;;;;;;8.05;6.90;;;19.80;99.90;;;;;;6122005;23;20018;-84
2023/04/22 10:08:08;;;;;;;9.15;6.63;;;19.60;99.90;;;;;;6121518;23;20045;-83
2023/04/22 10:10:35;;;;;;;9.07;6.28;;;19.40;99.90;;;;;;6123872;23;20042;-84
2023/04/22 10:13:03;;;;;;;8.80;6.50;;;19.50;99.90;;;;;;6097802;23;20010;-83
2023/04/22 10:15:39;;;;;;;8.60;6.50;;;19.60;99.90;;;;;;6121962;23;20096;-84
2023/04/22 10:18:08;;;;;;;8.55;6.47;;;19.60;99.90;;;;;;6122041;23;20018;-84
2023/04/22 10:20:40;;;;;;;10.27;7.60;;;19.80;99.90;;;;;;6124066;23;20014;-84
2023/04/22 10:23:13;;;;;;;9.57;7.82;;;19.70;99.90;;;;;;6121366;23;20010;-84
2023/04/22 10:25:39;;;;;;;9.48;7.93;;;19.40;99.90;;;;;;6121945;23;20061;-84
2023/04/22 10:28:08;;;;;;;9.85;7.63;;;19.50;99.90;;;;;;6122073;23;20049;-84
2023/04/22 10:30:36;;;;;;;10.02;7.57;;;19.40;99.90;;;;;;6122331;23;20014;-84
2023/04/22 10:33:23;;;;;;;8.13;6.78;;;19.60;99.90;;;;;;6097415;23;20010;-83
2023/04/22 10:36:06;;;;;;;9.20;6.82;;;19.80;99.90;;;;;;6121998;23;20053;-84
2023/04/22 10:38:40;;;;;;;9.15;6.15;;;20.00;99.90;;;;;;6123284;23;20010;-83
2023/04/22 10:41:12;;;;;;;8.23;6.70;;;20.10;99.90;;;;;;6122256;23;20033;-84
2023/04/22 10:43:46;;;;;;;7.38;6.53;;;20.20;99.90;;;;;;6123953;23;20014;-83
2023/04/22 10:46:35;;;;;;;9.38;7.32;;;20.20;99.90;;;;;;6121724;23;20094;-83
2023/04/22 10:49:11;;;;;;;8.05;6.30;;;20.40;99.90;;;;;;6123759;23;20333;-84
2023/04/22 10:51:54;;;;;;;9.85;7.30;;;20.50;99.90;;;;;;6121216;23;20014;-84
2023/04/22 10:54:26;;;;;;;9.48;7.00;;;20.60;99.90;;;;;;6121689;23;20088;-84
2023/04/22 10:57:09;;;;;;;7.90;6.82;;;20.70;99.90;;;;;;6121347;23;20026;-81
2023/04/22 10:59:50;;;;;;;9.67;6.97;;;20.80;99.90;;;;;;6123799;23;20014;-82
2023/04/22 11:02:16;;;;;;;9.88;7.28;;;20.80;99.90;;;;;;6121691;23;20014;-84
2023/04/22 11:04:42;;;;;;;12.38;7.32;;;20.70;99.90;;;;;;6097306;23;20010;-84
2023/04/22 11:07:19;;;;;;;8.55;7.38;;;20.50;99.90;;;;;;6120886;23;20048;-84
2023/04/22 11:09:48;;;;;;;8.35;5.82;;;20.70;99.90;;;;;;6123724;23;20374;-83
2023/04/22 11:12:33;;;;;;;20.20;7.35;;;20.70;99.90;;;;;;6096996;23;20049;-84
2023/04/22 11:14:59;;;;;;;8.05;6.68;;;20.80;99.90;;;;;;6123437;23;20017;-84
2023/04/22 11:17:25;;;;;;;10.70;6.32;;;20.80;99.90;;;;;;6121131;23;20014;-84
2023/04/22 11:19:55;;;;;;;6.05;5.45;;;20.70;99.90;;;;;;6121520;23;20021;-84
2023/04/22 11:22:22;;;;;;;8.45;5.22;;;20.90;99.90;;;;;;6121033;23;20018;-85
2023/04/22 11:24:58;;;;;;;6.72;5.55;;;21.10;99.90;;;;;;6121355;23;20010;-83
2023/04/22 11:27:29;;;;;;;8.43;5.80;;;21.20;99.90;;;;;;6121574;23;20025;-82
2023/04/22 11:30:18;;;;;;;6.70;4.60;;;21.00;99.90;;;;;;6097300;23;20072;-85
2023/04/22 11:32:45;;;;;;;7.60;5.10;;;21.10;99.90;;;;;;6097155;23;20101;-83
2023/04/22 11:35:22;;;;;;;9.77;5.47;;;21.40;99.90;;;;;;6122751;23;20010;-83
2023/04/22 11:38:00;;;;;;;8.07;5.60;;;21.50;99.90;;;;;;6097079;23;20014;-83
2023/04/22 11:40:31;;;;;;;6.63;5.53;;;21.60;99.90;;;;;;6123187;23;20009;-84
2023/04/22 11:42:58;;;;;;;7.88;5.05;;;21.50;99.90;;;;;;6096822;23;20018;-84
2023/04/22 11:45:25;;;;;;;14.75;4.63;;;21.50;99.90;;;;;;6095590;23;20121;-83
2023/04/22 11:47:51;;;;;;;7.63;4.47;;;21.50;99.90;;;;;;6119929;23;20014;-83
2023/04/22 11:50:21;;;;;;;8.30;4.70;;;21.40;99.90;;;;;;6118941;23;20010;-83
2023/04/22 11:52:53;;;;;;;7.57;5.07;;;21.30;99.90;;;;;;6121769;23;20133;-83
2023/04/22 11:55:29;;;;;;;6.07;4.10;;;21.60;99.90;;;;;;6119686;23;20318;-84
2023/04/22 11:58:00;;;;;;;5.97;4.38;;;21.90;99.90;;;;;;6121589;23;20024;-84
2023/04/22 12:00:32;;;;;;;6.65;4.07;;;22.20;99.90;;;;;;6096476;23;20018;-83
2023/04/22 12:03:02;;;;;;;6.32;4.53;;;22.40;99.90;;;;;;6096790;23;20294;-83
2023/04/22 12:05:32;;;;;;;6.05;4.38;;;22.40;99.90;;;;;;6119909;23;20010;-84
2023/04/22 12:08:00;;;;;;;21.55;4.53;;;22.40;99.90;;;;;;6123353;23;20334;-85
2023/04/22 12:10:26;;;;;;;7.47;4.50;;;22.20;99.90;;;;;;6121740;23;20041;-85
2023/04/22 12:12:54;;;;;;;6.90;4.60;;;22.00;99.90;;;;;;6123203;23;20036;-85
2023/04/22 12:15:19;;;;;;;9.88;5.22;;;21.80;99.70;;;;;;6121509;23;20119;-84
2023/04/22 12:17:45;;;;;;;10.27;5.82;;;21.80;99.90;;;;;;6121431;23;20022;-85
2023/04/22 12:20:12;;;;;;;9.80;4.70;;;21.80;99.90;;;;;;6122778;23;20018;-84
2023/04/22 12:22:38;;;;;;;8.43;5.28;;;21.70;99.90;;;;;;6125023;23;20025;-84
2023/04/22 12:25:04;;;;;;;5.68;4.95;;;21.70;99.90;;;;;;6125131;23;20311;-80
2023/04/22 12:27:30;;;;;;;7.90;5.45;;;21.80;99.90;;;;;;6125131;23;20025;-85
2023/04/22 12:29:56;;;;;;;7.60;5.30;;;21.80;99.90;;;;;;6098733;23;20072;-84
2023/04/22 12:32:24;;;;;;;10.10;4.70;;;22.00;99.90;;;;;;6122813;23;20025;-84
2023/04/22 12:34:50;;;;;;;9.90;5.70;;;22.10;99.90;;;;;;6124460;23;20013;-84